Terminal Aerodrome Forecast
Issued by NWS

Home | Current Version | Previous Version | Text Only | Print | Product List | Glossary On
Versions: 1 2 3 4 5 6 7 8 9 10 11 12 13 14 15 16 17 18 19 20 21 22 23
233
FTPA31 PHFO 272233 AAB
TAFHNY
TAF AMD
PHNY 272233Z 2723/2818 05011G20KT P6SM FEW025 SCT040
      TEMPO 2722/2802 VRB06KT -SHRA BKN025
     FM280800 05008KT P6SM FEW040=

USA.gov is the U.S. government's official web portal to all federal, state and local government web resources and services.